createdAt,value
2018-04-24T05:17:17.674Z,4.87
2018-04-24T05:19:46.529Z,5.13
2018-04-24T05:22:16.072Z,4.80
2018-04-24T05:24:44.888Z,4.13
2018-04-24T05:27:13.734Z,4.63
2018-04-24T05:29:43.588Z,4.37
2018-04-24T05:32:12.455Z,4.57
2018-04-24T05:34:41.248Z,4.70
2018-04-24T05:37:09.741Z,4.43
2018-04-24T05:39:38.270Z,4.30
2018-04-24T05:42:06.775Z,5.40
2018-04-24T05:44:36.578Z,4.40
2018-04-24T05:47:05.158Z,4.83
2018-04-24T05:49:33.881Z,4.23
2018-04-24T05:52:03.071Z,4.60
2018-04-24T05:54:32.377Z,4.97
2018-04-24T05:57:00.871Z,4.53
2018-04-24T05:59:29.423Z,4.27
2018-04-24T06:01:58.677Z,4.07
2018-04-24T06:04:27.416Z,4.17
2018-04-24T06:06:57.032Z,4.53
2018-04-24T06:09:26.852Z,4.37
2018-04-24T06:11:55.688Z,5.07
2018-04-24T06:14:25.041Z,4.60
2018-04-24T06:16:56.778Z,4.60
2018-04-24T06:19:25.517Z,3.90
2018-04-24T06:21:55.208Z,4.03
2018-04-24T06:24:24.099Z,4.13
2018-04-24T06:26:52.975Z,4.33
2018-04-24T06:29:22.618Z,4.03
2018-04-24T06:31:51.472Z,5.13
2018-04-24T06:34:21.185Z,3.97
2018-04-24T06:36:51.029Z,3.53
2018-04-24T06:39:19.903Z,4.10
2018-04-24T06:41:48.697Z,3.77
2018-04-24T06:44:18.527Z,3.77
2018-04-24T06:46:47.358Z,3.63
2018-04-24T06:49:16.188Z,3.87
2018-04-24T06:51:46.000Z,3.90
2018-04-24T06:54:15.833Z,3.30
2018-04-24T06:56:44.657Z,3.17
2018-04-24T06:59:13.479Z,4.83
2018-04-24T07:01:43.332Z,3.00
2018-04-24T07:04:12.250Z,3.10
2018-04-24T07:06:41.196Z,3.60
2018-04-24T07:09:10.021Z,3.53
2018-04-24T07:11:39.689Z,2.90
2018-04-24T07:14:08.956Z,2.37
2018-04-24T07:16:37.595Z,3.90
2018-04-24T07:19:06.418Z,3.13
2018-04-24T07:21:35.204Z,3.83
2018-04-24T07:24:04.713Z,3.73
2018-04-24T07:26:33.673Z,3.63
2018-04-24T07:29:02.677Z,3.43
2018-04-24T07:31:32.106Z,3.10
2018-04-24T07:34:01.114Z,3.63
2018-04-24T07:36:30.240Z,2.90
2018-04-24T07:38:59.153Z,2.77
2018-04-24T07:41:27.897Z,3.50
2018-04-24T07:43:56.711Z,2.80
2018-04-24T07:46:25.497Z,2.90
2018-04-24T07:48:55.089Z,2.47
2018-04-24T07:51:25.301Z,3.93
2018-04-24T07:53:54.009Z,3.07
2018-04-24T07:56:21.851Z,2.57
2018-04-24T07:58:50.625Z,2.97
2018-04-24T08:01:19.445Z,2.90
2018-04-24T08:03:48.284Z,3.60
2018-04-24T08:06:17.057Z,3.00
2018-04-24T08:08:46.418Z,2.77
2018-04-24T08:11:15.512Z,2.90
2018-04-24T08:13:44.440Z,2.67
2018-04-24T08:16:14.160Z,2.60
2018-04-24T08:18:43.994Z,3.10
2018-04-24T08:21:12.991Z,2.63
2018-04-24T08:23:42.655Z,3.00
2018-04-24T08:26:13.706Z,2.60
2018-04-24T08:28:43.500Z,2.60
2018-04-24T08:31:12.473Z,3.30
2018-04-24T08:33:42.297Z,3.03
2018-04-24T08:36:11.280Z,2.73
2018-04-24T08:38:41.255Z,3.73
2018-04-24T08:41:10.503Z,3.43
2018-04-24T08:43:40.340Z,3.10
2018-04-24T08:46:10.262Z,3.57
2018-04-24T08:48:39.337Z,3.00
2018-04-24T08:51:08.105Z,3.73
2018-04-24T08:53:39.111Z,2.77
2018-04-24T08:56:08.544Z,3.37
2018-04-24T08:58:37.617Z,3.40
2018-04-24T09:01:07.085Z,6.50
2018-04-24T09:03:36.272Z,4.00
2018-04-24T09:06:04.969Z,4.50
2018-04-24T09:08:33.939Z,3.77
2018-04-24T09:11:02.747Z,3.70
2018-04-24T09:13:32.216Z,3.00
2018-04-24T09:16:01.132Z,2.70
2018-04-24T09:18:29.951Z,4.27
2018-04-24T09:20:58.927Z,4.40
2018-04-24T09:23:27.771Z,4.50
2018-04-24T09:25:57.356Z,5.00
2018-04-24T09:28:27.309Z,3.37
2018-04-24T09:30:56.394Z,3.43
2018-04-24T09:33:25.265Z,3.83
2018-04-24T09:35:54.012Z,4.33
2018-04-24T09:38:22.818Z,4.33
2018-04-24T09:40:52.373Z,3.80
2018-04-24T09:43:21.172Z,3.70
2018-04-24T09:45:50.048Z,3.83
2018-04-24T09:48:18.958Z,3.93
2018-04-24T09:50:47.853Z,3.57
2018-04-24T09:53:16.730Z,4.20
2018-04-24T09:55:46.670Z,2.90
2018-04-24T09:58:15.508Z,3.47
2018-04-24T10:00:45.017Z,3.53
2018-04-24T10:03:14.381Z,2.87
2018-04-24T10:05:43.971Z,3.80
2018-04-24T10:08:12.813Z,3.53
2018-04-24T10:10:41.614Z,2.83
2018-04-24T10:13:11.274Z,2.83
2018-04-24T10:15:40.096Z,3.23
2018-04-24T10:18:08.931Z,3.87
2018-04-24T10:20:37.768Z,2.67
2018-04-24T10:23:06.640Z,3.40
2018-04-24T10:25:35.537Z,3.10
2018-04-24T10:28:04.376Z,2.87
2018-04-24T10:30:34.107Z,4.30
2018-04-24T10:33:03.824Z,3.40
2018-04-24T10:35:32.148Z,3.90
2018-04-24T10:38:01.496Z,3.30
2018-04-24T10:40:30.626Z,3.50
2018-04-24T10:42:59.395Z,4.20
2018-04-24T10:45:28.304Z,3.87
2018-04-24T10:47:57.088Z,2.40
2018-04-24T10:50:26.880Z,3.10
2018-04-24T10:52:55.755Z,3.50
2018-04-24T10:55:25.453Z,3.40
2018-04-24T10:57:54.432Z,3.30
2018-04-24T11:00:23.227Z,3.20
2018-04-24T11:02:52.095Z,3.00
2018-04-24T11:05:20.918Z,2.40
2018-04-24T11:07:50.487Z,3.00
2018-04-24T11:10:19.484Z,3.37
2018-04-24T11:12:48.324Z,2.20
2018-04-24T11:15:18.078Z,2.77
2018-04-24T11:17:46.872Z,2.13
2018-04-24T11:20:15.645Z,2.10
2018-04-24T11:22:45.120Z,1.73
2018-04-24T11:25:14.519Z,1.97
2018-04-24T11:27:44.349Z,1.50
2018-04-24T11:30:14.010Z,1.70
2018-04-24T11:32:42.920Z,1.67
2018-04-24T11:35:11.681Z,1.60
2018-04-24T11:37:40.671Z,1.30
2018-04-24T11:40:09.498Z,1.30
2018-04-24T11:42:38.288Z,1.57
2018-04-24T11:45:06.860Z,1.50
2018-04-24T11:47:35.316Z,1.10
2018-04-24T11:50:03.763Z,1.40
2018-04-24T11:52:32.589Z,1.47
2018-04-24T11:55:01.411Z,1.30
2018-04-24T11:57:30.196Z,0.90
2018-04-24T11:59:59.045Z,1.47
2018-04-24T12:02:28.766Z,1.90
2018-04-24T12:04:57.552Z,1.60
2018-04-24T12:07:26.421Z,1.23
2018-04-24T12:09:54.773Z,1.70
2018-04-24T12:12:23.892Z,1.60
2018-04-24T12:14:52.808Z,1.47
2018-04-24T12:17:21.700Z,1.40
2018-04-24T12:19:50.546Z,1.47
2018-04-24T12:22:19.321Z,1.43
2018-04-24T12:24:48.182Z,1.23
2018-04-24T12:27:16.956Z,1.43
2018-04-24T12:29:45.794Z,1.87
2018-04-24T12:32:14.658Z,1.60
2018-04-24T12:34:43.519Z,1.97
2018-04-24T12:37:13.129Z,1.60
2018-04-24T12:39:41.967Z,1.90
2018-04-24T12:42:10.778Z,1.60
2018-04-24T12:44:39.707Z,1.40
2018-04-24T12:47:08.586Z,2.30
2018-04-24T12:49:37.345Z,1.33
2018-04-24T12:52:06.150Z,1.63
2018-04-24T12:54:35.983Z,1.20
2018-04-24T12:57:04.785Z,1.37
2018-04-24T12:59:33.683Z,1.60
2018-04-24T13:02:02.667Z,1.70
2018-04-24T13:04:31.485Z,2.27
2018-04-24T13:07:00.836Z,1.90
2018-04-24T13:09:30.503Z,1.93
2018-04-24T13:12:00.826Z,2.47
2018-04-24T13:14:29.668Z,2.33
2018-04-24T13:16:59.339Z,2.13
2018-04-24T13:19:28.285Z,2.30
2018-04-24T13:21:57.974Z,2.03
2018-04-24T13:24:27.820Z,2.07
2018-04-24T13:26:56.711Z,2.80
2018-04-24T13:29:25.482Z,2.13
2018-04-24T13:31:55.297Z,2.40
2018-04-24T13:34:25.458Z,1.77
2018-04-24T13:36:53.821Z,2.60
2018-04-24T13:39:22.812Z,2.50
2018-04-24T13:41:51.615Z,2.03
2018-04-24T13:44:20.442Z,2.87
2018-04-24T13:46:49.768Z,3.20
2018-04-24T13:49:19.352Z,3.10
2018-04-24T13:51:48.168Z,2.90
2018-04-24T13:54:17.777Z,2.70
2018-04-24T13:56:47.609Z,2.80
2018-04-24T13:59:16.435Z,2.67
2018-04-24T14:01:45.401Z,2.57
2018-04-24T14:04:14.208Z,2.87
2018-04-24T14:06:43.014Z,2.30
2018-04-24T14:09:11.813Z,2.43
2018-04-24T14:11:40.744Z,2.93
2018-04-24T14:14:10.832Z,2.70
2018-04-24T14:16:39.475Z,2.40
2018-04-24T14:19:08.216Z,2.40
2018-04-24T14:21:37.683Z,2.63
2018-04-24T14:24:06.694Z,2.50
2018-04-24T14:26:35.504Z,2.50
2018-04-24T14:29:04.973Z,2.37
2018-04-24T14:31:34.516Z,2.20
2018-04-24T14:34:03.241Z,2.13
2018-04-24T14:36:32.016Z,2.20
2018-04-24T14:39:01.620Z,2.33
2018-04-24T14:41:31.476Z,2.40
2018-04-24T14:44:00.360Z,1.73
2018-04-24T14:46:29.164Z,2.33
2018-04-24T14:48:58.203Z,2.50
2018-04-24T14:51:27.798Z,2.20
2018-04-24T14:53:57.595Z,3.27
2018-04-24T14:56:26.915Z,2.77
2018-04-24T14:58:57.434Z,2.47
2018-04-24T15:01:27.187Z,2.90
2018-04-24T15:03:56.913Z,2.80
2018-04-24T15:06:25.729Z,3.30
2018-04-24T15:08:54.562Z,3.63
2018-04-24T15:11:23.310Z,3.20
2018-04-24T15:13:52.216Z,2.90
2018-04-24T15:16:21.031Z,3.40
2018-04-24T15:18:49.864Z,4.03
2018-04-24T15:21:18.681Z,3.37
2018-04-24T15:23:47.191Z,3.37
2018-04-24T15:26:15.719Z,3.60
2018-04-24T15:28:44.244Z,3.77
2018-04-24T15:31:13.384Z,2.97
2018-04-24T15:33:42.055Z,3.33
2018-04-24T15:36:10.805Z,3.43
2018-04-24T15:38:39.556Z,3.40
2018-04-24T15:41:08.384Z,2.97
2018-04-24T15:43:37.112Z,3.77
2018-04-24T15:46:06.907Z,4.37
2018-04-24T15:48:35.732Z,3.30
2018-04-24T15:51:04.558Z,3.43
2018-04-24T15:53:33.389Z,2.77
2018-04-24T15:56:01.897Z,4.07
2018-04-24T15:58:31.048Z,3.60
2018-04-24T16:01:00.475Z,3.33
2018-04-24T16:03:29.014Z,4.00
2018-04-24T16:05:58.493Z,3.07
2018-04-24T16:08:27.345Z,3.37
2018-04-24T16:10:56.179Z,3.27
2018-04-24T16:13:26.029Z,3.50
2018-04-24T16:15:54.514Z,3.13
2018-04-24T16:18:23.007Z,4.40
2018-04-24T16:20:51.542Z,3.47
2018-04-24T16:23:20.026Z,3.80
2018-04-24T16:25:48.567Z,3.73
2018-04-24T16:28:17.244Z,4.07
2018-04-24T16:30:45.736Z,3.50
2018-04-24T16:33:14.587Z,3.67
2018-04-24T16:35:43.483Z,2.90
2018-04-24T16:38:12.357Z,3.53
2018-04-24T16:40:40.859Z,4.60
2018-04-24T16:43:09.981Z,4.90
2018-04-24T16:45:38.780Z,3.90
2018-04-24T16:48:07.506Z,3.40
2018-04-24T16:50:36.315Z,3.50
2018-04-24T16:53:05.147Z,3.60
2018-04-24T16:55:33.658Z,3.30
2018-04-24T16:58:03.060Z,4.60
2018-04-24T17:00:32.723Z,4.10
2018-04-24T17:03:01.576Z,6.10
2018-04-24T17:05:31.287Z,4.97
2018-04-24T17:08:00.019Z,6.03
2018-04-24T17:10:28.920Z,6.70
2018-04-24T17:12:59.761Z,7.73
2018-04-24T17:15:29.479Z,3.90
2018-04-24T17:17:59.200Z,5.47
2018-04-24T17:20:28.297Z,4.87
2018-04-24T17:22:58.182Z,4.80
2018-04-24T17:25:26.881Z,5.60
2018-04-24T17:34:43.813Z,7.07
2018-04-24T17:37:36.065Z,8.00
2018-04-24T17:40:05.998Z,6.63
2018-04-24T17:42:35.760Z,5.60
2018-04-24T17:45:04.588Z,6.03
2018-04-24T17:47:36.192Z,5.97
2018-04-24T17:50:06.147Z,5.43
2018-04-24T17:55:21.772Z,5.27
2018-04-24T18:00:25.748Z,5.53
2018-04-24T18:14:16.869Z,5.43
2018-04-24T18:17:49.499Z,5.50
2018-04-24T18:20:20.279Z,6.85
2018-04-24T18:22:50.202Z,5.70
2018-04-24T18:39:05.115Z,5.93
2018-04-24T18:44:42.618Z,6.00
2018-04-24T18:47:18.205Z,5.97
2018-04-24T18:49:50.583Z,5.57
2018-04-24T18:52:22.633Z,7.03
2018-04-24T18:54:52.611Z,5.10
2018-04-24T18:57:23.609Z,4.97
2018-04-24T18:59:52.760Z,6.77
2018-04-24T19:02:21.638Z,7.40
2018-04-24T19:05:14.667Z,6.80
2018-04-24T19:07:44.252Z,7.40
2018-04-24T19:10:13.357Z,7.67
2018-04-24T19:12:42.841Z,6.93
2018-04-24T19:15:11.536Z,7.93
2018-04-24T19:17:40.452Z,8.47
2018-04-24T19:20:09.612Z,8.57
2018-04-24T19:22:39.046Z,9.07
2018-04-24T19:25:13.277Z,8.53
2018-04-24T19:27:42.095Z,8.33
2018-04-24T19:57:34.339Z,6.17
2018-04-24T21:37:00.297Z,7.77
